2NY5 weather

Strong Memorial Hospital Heliport
Rochester, New York, United States

Public forecast

Using degrees Fahrenheit for public forecast. Weather courtesy of forecast.io.

Closest aviation weather report (METAR) to Strong Memorial Hospital Heliport

Closest report is Greater Rochester International Airport, 2.2 nm (4.0 km) W. Retrieved 2019/12/07 00:54 UTC (20 minutes ago):

KROC 070054Z 27006KT 10SM FEW030 M03/M07 A3018 RMK AO2 SLP229 T10331067

Closest aviation forecast (TAF) to Strong Memorial Hospital Heliport

Closest forecast is Greater Rochester International Airport, 2.2 nm (4.0 km) W. Retrieved 2019-12-07 00:36 UTC (38 minutes ago):

TAF KROC 062333Z 0700/0724 31008KT P6SM SCT035 FM070300 28009KT P6SM BKN030 FM070800 28012KT P6SM BKN050 FM071400 31011KT P6SM BKN040 FM072100 27006KT P6SM SCT100